Terminal Aerodrome Forecast
Issued by NWS

Home | Current Version | Previous Version | Text Only | Print | Product List | Glossary On
Versions: 1 2 3 4 5 6 7 8 9 10 11 12 13 14 15 16 17 18 19 20 21
000
FTUS43 KDLH 162000 AAC
TAFHIB
TAF AMD
KHIB 162056Z 1621/1718 05015G20KT 3/4SM -SN OVC022
      TEMPO 1621/1624 1SM -SN OVC012
     FM170200 03014G23KT 4SM -SN SCT007 OVC015
     FM170900 01010KT P6SM -SN SCT007 OVC015
     FM171400 03010KT P6SM BKN030=

USA.gov is the U.S. government's official web portal to all federal, state and local government web resources and services.